To NAV CANADA Home Page Login to a new session Search on AWWS site Feedback and Comments Disclaimer Vers la page française équivalente Tips FAQ What's new on the site To the Forecasts and Observations / NOTAM section To "File a Flight Plan" website Publications and other links Update of the User's profile FIC Telephone Numbers My Weather Data Folder Route Weather Data Regional Weather Data Local Weather Data To the Forecasts and Observations / NOTAM section
Request Generated 10/18/2017 at 03:50:19 UTC . Weather information available at that time is displayed.

METAR/TAF

LA GRANDE-4/QC    (show WxCam)

SPECI CYAH 180344Z AUTO 26010KT 6SM -RA BR SCT007 OVC011 03/03 A2949
RMK SLP003=
SPECI CYAH 180345Z AUTO 26010KT 5SM -RA BR OVC009 03/03 A2949 RMK
TS/LTNG TEMPO UNAVBL SLP003=
SPECI CYAH 180341Z AUTO 25009KT 8SM -RA BKN007 OVC011 03/03 A2949 RMK
SLP003=
SPECI CYAH 180338Z AUTO 25009KT 9SM -RA SCT005 OVC011 03/03 A2949 RMK
SLP003=
SPECI CYAH 180312Z AUTO 24007KT 9SM -RA OVC005 03/03 A2948 RMK
SLP000=
METAR CYAH 180300Z AUTO 24006KT 9SM OVC005 02/02 A2948 RMK SLP999=
SPECI CYAH 180251Z AUTO 23006KT 9SM OVC005 02/02 A2947 RMK TS/LTNG
TEMPO UNAVBL SLP998=
METAR CYAH 180200Z AUTO 21005KT 9SM -RA OVC005 02/02 A2947 RMK
SLP996=
SPECI CYAH 180102Z AUTO 26004KT 9SM -RA OVC007 01/01 A2945 RMK
SLP992=
METAR CYAH 180100Z AUTO 25004KT 210V280 9SM -RA OVC009 01/01 A2945
RMK SLP991=

*** REMARK        : Forecast period has ended; this was the last TAF issued
*** REMARQUE : La période de prévision est échue; ceci était le dernier TAF qui a été émis
TAF CYAH 171738Z 1718/1721 14012G25KT 3SM -SNRA BR SCT012 OVC025
TEMPO 1718/1721 11/2SM -SN OVC012
RMK FCST BASED ON AUTO OBS. NXT FCST WILL BE ISSUED AT 181045Z=
Your time UTC time
Weather data provided by Environment Canada and NAV CANADA